createdAt,value
2023-03-29T00:00:38.664Z,244.43
2023-03-29T00:01:38.624Z,245.96
2023-03-29T00:02:38.740Z,246.81
2023-03-29T00:03:38.758Z,243.92
2023-03-29T00:04:38.678Z,242.00
2023-03-29T00:05:38.622Z,241.41
2023-03-29T00:06:38.636Z,241.69
2023-03-29T00:07:38.582Z,242.40
2023-03-29T00:08:38.587Z,243.82
2023-03-29T00:09:38.594Z,243.88
2023-03-29T00:10:38.561Z,244.43
2023-03-29T00:11:38.569Z,244.31
2023-03-29T00:12:38.560Z,244.19
2023-03-29T00:13:38.548Z,241.88
2023-03-29T00:14:38.546Z,243.21
2023-03-29T00:15:38.538Z,242.63
2023-03-29T00:16:38.589Z,242.80
2023-03-29T00:17:38.562Z,243.33
2023-03-29T00:18:38.519Z,240.53
2023-03-29T00:19:38.539Z,236.62
2023-03-29T00:20:38.517Z,235.09
2023-03-29T00:21:38.520Z,237.24
2023-03-29T00:22:38.505Z,240.07
2023-03-29T00:23:38.478Z,240.42
2023-03-29T00:24:38.471Z,239.41
2023-03-29T00:25:38.449Z,238.81
2023-03-29T00:26:38.466Z,238.24
2023-03-29T00:27:38.498Z,237.24
2023-03-29T00:28:38.458Z,236.75
2023-03-29T00:29:38.472Z,239.13
2023-03-29T00:30:38.452Z,241.09
2023-03-29T00:31:38.519Z,242.81
2023-03-29T00:32:38.498Z,242.36
2023-03-29T00:33:38.475Z,240.10
2023-03-29T00:34:38.418Z,239.91
2023-03-29T00:35:38.489Z,240.01
2023-03-29T00:36:38.427Z,240.34
2023-03-29T00:37:38.398Z,242.40
2023-03-29T00:38:38.410Z,241.08
2023-03-29T00:39:38.380Z,242.13
2023-03-29T00:40:38.377Z,242.40
2023-03-29T00:41:38.390Z,239.99
2023-03-29T00:42:38.425Z,235.82
2023-03-29T00:43:38.373Z,235.74
2023-03-29T00:44:38.411Z,236.62
2023-03-29T00:45:38.365Z,238.26
2023-03-29T00:46:38.377Z,241.73
2023-03-29T00:47:38.398Z,243.25
2023-03-29T00:48:38.361Z,242.82
2023-03-29T00:49:38.330Z,243.37
2023-03-29T00:50:38.350Z,243.70
2023-03-29T00:51:38.331Z,241.82
2023-03-29T00:52:38.326Z,241.73
2023-03-29T00:53:38.320Z,244.30
2023-03-29T00:54:38.310Z,245.32
2023-03-29T00:55:38.347Z,243.58
2023-03-29T00:56:38.348Z,241.12
2023-03-29T00:57:38.285Z,239.30
2023-03-29T00:58:38.310Z,239.31
2023-03-29T00:59:38.325Z,240.26
2023-03-29T01:00:38.321Z,240.39
2023-03-29T01:01:38.360Z,243.01
2023-03-29T01:02:38.381Z,244.39
2023-03-29T01:03:38.368Z,242.40
2023-03-29T01:04:38.283Z,242.22
2023-03-29T01:05:38.262Z,239.75
2023-03-29T01:06:38.324Z,239.48
2023-03-29T01:07:38.280Z,240.24
2023-03-29T01:08:38.257Z,240.91
2023-03-29T01:09:38.268Z,238.99
2023-03-29T01:10:38.247Z,237.15
2023-03-29T01:11:38.261Z,236.42
2023-03-29T01:12:38.267Z,238.01
2023-03-29T01:13:38.264Z,239.38
2023-03-29T01:14:38.262Z,241.15
2023-03-29T01:15:38.272Z,241.99
2023-03-29T01:16:38.288Z,242.97
2023-03-29T01:17:38.271Z,242.26
2023-03-29T01:18:38.255Z,242.89
2023-03-29T01:19:38.253Z,244.25
2023-03-29T01:20:38.256Z,243.75
2023-03-29T01:21:38.237Z,242.14
2023-03-29T01:22:38.235Z,241.44
2023-03-29T01:23:38.204Z,240.81
2023-03-29T01:24:38.216Z,240.59
2023-03-29T01:25:38.206Z,239.41
2023-03-29T01:26:38.182Z,240.58
2023-03-29T01:27:38.187Z,240.87
2023-03-29T01:28:38.170Z,240.79
2023-03-29T01:29:38.169Z,242.23
2023-03-29T01:30:38.161Z,241.04
2023-03-29T01:31:38.166Z,241.91
2023-03-29T01:32:38.187Z,242.72
2023-03-29T01:33:38.181Z,243.08
2023-03-29T01:34:38.195Z,243.34
2023-03-29T01:35:38.174Z,243.29
2023-03-29T01:36:38.167Z,243.26
2023-03-29T01:37:38.142Z,242.28
2023-03-29T01:38:38.134Z,240.61
2023-03-29T01:39:38.165Z,236.71
2023-03-29T01:40:38.122Z,236.50
2023-03-29T01:41:38.129Z,238.28
2023-03-29T01:42:38.123Z,241.19
2023-03-29T01:43:38.111Z,240.16
2023-03-29T01:44:38.070Z,237.05
2023-03-29T01:45:38.096Z,235.82
2023-03-29T01:46:38.186Z,235.52
2023-03-29T01:47:38.073Z,233.94
2023-03-29T01:48:38.048Z,235.15
2023-03-29T01:49:38.038Z,233.45
2023-03-29T01:50:38.038Z,234.20
2023-03-29T01:51:38.026Z,231.97
2023-03-29T01:52:38.007Z,232.52
2023-03-29T01:53:38.004Z,230.26
2023-03-29T01:54:37.988Z,231.14
2023-03-29T01:55:38.078Z,232.70
2023-03-29T01:56:38.023Z,232.99
2023-03-29T01:57:37.983Z,233.09
2023-03-29T01:58:37.984Z,231.83
2023-03-29T01:59:37.991Z,230.36
2023-03-29T02:00:37.983Z,231.18
2023-03-29T02:01:38.017Z,232.18
2023-03-29T02:02:38.036Z,232.40
2023-03-29T02:03:38.011Z,231.13
2023-03-29T02:04:37.970Z,231.15
2023-03-29T02:05:37.975Z,232.87
2023-03-29T02:06:37.955Z,235.62
2023-03-29T02:07:37.960Z,238.46
2023-03-29T02:08:37.978Z,238.26
2023-03-29T02:09:38.008Z,238.88
2023-03-29T02:10:38.032Z,237.82
2023-03-29T02:11:38.012Z,240.19
2023-03-29T02:12:37.984Z,241.60
2023-03-29T02:13:37.980Z,239.53
2023-03-29T02:14:38.000Z,239.23
2023-03-29T02:15:38.005Z,241.34
2023-03-29T02:16:37.973Z,242.22
2023-03-29T02:17:37.994Z,244.89
2023-03-29T02:18:37.948Z,243.63
2023-03-29T02:19:37.921Z,244.05
2023-03-29T02:20:37.939Z,244.34
2023-03-29T02:21:37.927Z,240.92
2023-03-29T02:22:37.896Z,240.86
2023-03-29T02:23:37.910Z,239.56
2023-03-29T02:24:37.880Z,239.52
2023-03-29T02:25:37.917Z,242.33
2023-03-29T02:26:37.873Z,241.82
2023-03-29T02:27:37.861Z,239.77
2023-03-29T02:28:37.855Z,235.85
2023-03-29T02:29:37.891Z,234.96
2023-03-29T02:30:37.826Z,234.81
2023-03-29T02:31:37.944Z,234.46
2023-03-29T02:32:37.929Z,237.04
2023-03-29T02:33:37.826Z,237.73
2023-03-29T02:34:37.820Z,238.34
2023-03-29T02:35:37.874Z,237.44
2023-03-29T02:36:37.847Z,237.32
2023-03-29T02:37:37.844Z,236.25
2023-03-29T02:38:37.832Z,236.91
2023-03-29T02:39:37.805Z,238.60
2023-03-29T02:40:37.874Z,236.56
2023-03-29T02:41:37.786Z,235.75
2023-03-29T02:42:37.788Z,234.06
2023-03-29T02:43:37.796Z,233.70
2023-03-29T02:44:37.815Z,235.15
2023-03-29T02:45:37.844Z,236.63
2023-03-29T02:46:37.920Z,239.11
2023-03-29T02:47:37.849Z,239.96
2023-03-29T02:48:37.823Z,240.19
2023-03-29T02:49:37.807Z,240.32
2023-03-29T02:50:37.851Z,241.49
2023-03-29T02:51:37.855Z,243.75
2023-03-29T02:52:37.798Z,245.51
2023-03-29T02:53:37.837Z,246.02
2023-03-29T02:54:37.819Z,245.67
2023-03-29T02:55:37.813Z,245.84
2023-03-29T02:56:37.810Z,247.34
2023-03-29T02:57:38.716Z,248.70
2023-03-29T02:58:37.775Z,250.16
2023-03-29T02:59:37.808Z,249.72
2023-03-29T03:00:37.793Z,250.00
2023-03-29T03:01:37.798Z,249.93
2023-03-29T03:02:38.022Z,249.95
2023-03-29T03:03:37.865Z,249.69
2023-03-29T03:04:37.778Z,249.68
2023-03-29T03:05:37.747Z,249.64
2023-03-29T03:06:37.797Z,250.00
2023-03-29T03:07:37.796Z,250.00
2023-03-29T03:08:37.773Z,250.00
2023-03-29T03:09:37.802Z,247.47
2023-03-29T03:10:37.805Z,243.13
2023-03-29T03:11:37.782Z,242.43
2023-03-29T03:12:37.749Z,239.98
2023-03-29T03:13:37.749Z,239.66
2023-03-29T03:14:37.725Z,241.03
2023-03-29T03:15:37.695Z,240.64
2023-03-29T03:16:37.830Z,242.68
2023-03-29T03:17:37.791Z,245.22
2023-03-29T03:18:37.757Z,244.81
2023-03-29T03:19:37.777Z,247.45
2023-03-29T03:20:37.751Z,248.45
2023-03-29T03:21:37.788Z,246.25
2023-03-29T03:22:37.773Z,248.56
2023-03-29T03:23:37.721Z,246.97
2023-03-29T03:24:37.769Z,245.78
2023-03-29T03:25:37.737Z,245.52
2023-03-29T03:26:37.761Z,244.73
2023-03-29T03:27:37.765Z,242.98
2023-03-29T03:28:37.771Z,243.71
2023-03-29T03:29:37.817Z,242.83
2023-03-29T03:30:37.830Z,242.54
2023-03-29T03:31:37.859Z,245.29
2023-03-29T03:32:37.919Z,244.93
2023-03-29T03:33:37.860Z,243.92
2023-03-29T03:34:37.866Z,246.25
2023-03-29T03:35:37.923Z,245.16
2023-03-29T03:36:38.748Z,244.75
2023-03-29T03:37:37.889Z,244.14
2023-03-29T03:38:37.944Z,244.21
2023-03-29T03:39:37.946Z,242.64
2023-03-29T03:40:37.918Z,244.29
2023-03-29T03:41:37.947Z,241.60
2023-03-29T03:42:37.931Z,243.68
2023-03-29T03:43:37.983Z,244.01
2023-03-29T03:44:37.952Z,242.98
2023-03-29T03:45:37.993Z,242.23
2023-03-29T03:46:37.981Z,245.12
2023-03-29T03:47:38.172Z,244.32
2023-03-29T03:48:38.017Z,244.36
2023-03-29T03:49:37.991Z,243.39
2023-03-29T03:50:37.993Z,243.01
2023-03-29T03:51:38.016Z,243.76
2023-03-29T03:52:38.039Z,242.54
2023-03-29T03:53:38.070Z,244.09
2023-03-29T03:54:38.081Z,244.96
2023-03-29T03:55:38.051Z,243.15
2023-03-29T03:56:38.135Z,245.27
2023-03-29T03:57:38.095Z,245.97
2023-03-29T03:58:38.101Z,246.81
2023-03-29T03:59:38.083Z,248.13
2023-03-29T04:00:38.100Z,246.20
2023-03-29T04:01:38.092Z,247.33
2023-03-29T04:02:38.185Z,249.40
2023-03-29T04:03:38.241Z,249.28
2023-03-29T04:04:38.125Z,249.72
2023-03-29T04:05:38.102Z,250.00
2023-03-29T04:06:38.112Z,248.97
2023-03-29T04:07:38.112Z,248.88
2023-03-29T04:08:38.107Z,250.00
2023-03-29T04:09:38.126Z,249.35
2023-03-29T04:10:38.117Z,247.02
2023-03-29T04:11:38.126Z,248.20
2023-03-29T04:12:38.118Z,249.27
2023-03-29T04:13:38.135Z,249.13
2023-03-29T04:14:38.473Z,248.74
2023-03-29T04:15:38.652Z,248.30
2023-03-29T04:16:38.098Z,250.00
2023-03-29T04:17:38.196Z,248.10
2023-03-29T04:18:38.096Z,248.49
2023-03-29T04:19:38.051Z,248.73
2023-03-29T04:20:38.059Z,249.75
2023-03-29T04:21:38.055Z,249.20
2023-03-29T04:22:38.063Z,248.69
2023-03-29T04:23:38.048Z,249.33
2023-03-29T04:24:38.006Z,250.00
2023-03-29T04:25:38.003Z,248.74
2023-03-29T04:26:38.030Z,247.10
2023-03-29T04:27:38.009Z,247.60
2023-03-29T04:28:37.998Z,248.85
2023-03-29T04:29:38.005Z,248.95
2023-03-29T04:30:38.002Z,248.71
2023-03-29T04:31:38.019Z,249.46
2023-03-29T04:32:38.006Z,249.68
2023-03-29T04:33:37.987Z,247.35
2023-03-29T04:34:37.982Z,248.86
2023-03-29T04:35:37.971Z,249.07
2023-03-29T04:36:37.976Z,250.00
2023-03-29T04:37:37.957Z,247.99
2023-03-29T04:38:37.962Z,245.18
2023-03-29T04:39:37.960Z,245.16
2023-03-29T04:40:37.942Z,248.26
2023-03-29T04:41:37.928Z,246.57
2023-03-29T04:42:37.909Z,246.42
2023-03-29T04:43:40.110Z,246.38
2023-03-29T04:44:37.918Z,247.28
2023-03-29T04:45:37.869Z,245.67
2023-03-29T04:46:37.891Z,246.55
2023-03-29T04:47:37.898Z,247.15
2023-03-29T04:48:37.826Z,245.75
2023-03-29T04:49:37.847Z,247.71
2023-03-29T04:50:37.825Z,245.95
2023-03-29T04:51:37.833Z,244.62
2023-03-29T04:52:37.839Z,245.24
2023-03-29T04:53:37.841Z,245.79
2023-03-29T04:54:37.835Z,244.77
2023-03-29T04:55:37.833Z,244.28
2023-03-29T04:56:37.889Z,245.33
2023-03-29T04:57:37.801Z,245.08
2023-03-29T04:58:37.820Z,245.82
2023-03-29T04:59:37.823Z,246.11
2023-03-29T05:00:37.792Z,245.15
2023-03-29T05:01:44.882Z,246.63
2023-03-29T05:02:37.821Z,246.76
2023-03-29T05:03:37.775Z,246.93
2023-03-29T05:04:37.769Z,247.29
2023-03-29T05:05:37.753Z,246.92
2023-03-29T05:06:37.672Z,244.78
2023-03-29T05:07:37.637Z,245.27
2023-03-29T05:08:37.607Z,245.80
2023-03-29T05:09:37.556Z,246.48
2023-03-29T05:10:37.532Z,246.18
2023-03-29T05:11:37.482Z,246.76
2023-03-29T05:12:37.421Z,245.91
2023-03-29T05:13:37.399Z,247.02
2023-03-29T05:14:37.354Z,245.36
2023-03-29T05:15:39.038Z,244.89
2023-03-29T05:16:37.363Z,245.01
2023-03-29T05:17:37.281Z,245.16
2023-03-29T05:18:37.212Z,245.39
2023-03-29T05:19:37.134Z,246.20
2023-03-29T05:20:37.136Z,249.86
2023-03-29T05:21:37.079Z,231.41
2023-03-29T05:22:37.058Z,377.51
2023-03-29T05:23:37.022Z,411.48
2023-03-29T05:24:36.983Z,339.56
2023-03-29T05:25:36.964Z,268.35
2023-03-29T05:26:36.931Z,229.83
2023-03-29T05:27:36.939Z,207.58
2023-03-29T05:28:36.968Z,196.82
2023-03-29T05:29:36.962Z,186.98
2023-03-29T05:30:36.979Z,183.48
2023-03-29T05:31:37.009Z,191.28
2023-03-29T05:32:37.002Z,203.93
2023-03-29T05:33:36.987Z,214.21
2023-03-29T05:34:36.991Z,217.02
2023-03-29T05:35:37.049Z,211.96
2023-03-29T05:36:37.022Z,211.96
2023-03-29T05:37:37.005Z,212.21
2023-03-29T05:38:36.984Z,208.86
2023-03-29T05:39:37.821Z,206.13
2023-03-29T05:40:36.953Z,207.62
2023-03-29T05:41:36.930Z,208.19
2023-03-29T05:42:36.923Z,213.35
2023-03-29T05:43:36.915Z,216.17
2023-03-29T05:44:37.330Z,222.47
2023-03-29T05:45:36.917Z,226.54
2023-03-29T05:46:43.832Z,229.28
2023-03-29T05:47:36.887Z,229.49
2023-03-29T05:48:36.872Z,230.44
2023-03-29T05:49:36.788Z,232.25
2023-03-29T05:50:36.776Z,236.05
2023-03-29T05:51:36.765Z,242.14
2023-03-29T05:52:36.720Z,247.17
2023-03-29T05:53:36.676Z,247.85
2023-03-29T05:54:36.629Z,248.68
2023-03-29T05:55:36.614Z,249.54
2023-03-29T05:56:36.557Z,249.89
2023-03-29T05:57:36.535Z,248.97
2023-03-29T05:58:36.501Z,249.95
2023-03-29T05:59:36.513Z,249.80
2023-03-29T06:00:36.429Z,249.57
2023-03-29T06:01:36.423Z,249.72
2023-03-29T06:02:36.439Z,249.56
2023-03-29T06:03:36.444Z,249.64
2023-03-29T06:04:36.348Z,250.00
2023-03-29T06:05:36.208Z,249.63
2023-03-29T06:06:36.183Z,249.69
2023-03-29T06:07:36.160Z,248.54
2023-03-29T06:08:36.084Z,249.33
2023-03-29T06:09:36.063Z,249.75
2023-03-29T06:10:36.001Z,249.03
2023-03-29T06:11:35.979Z,249.67
2023-03-29T06:12:35.941Z,249.40
2023-03-29T06:13:35.932Z,249.01
2023-03-29T06:14:35.873Z,249.43
2023-03-29T06:15:35.839Z,250.00
2023-03-29T06:16:35.788Z,249.68
2023-03-29T06:17:35.769Z,249.48
2023-03-29T06:18:35.723Z,248.90
2023-03-29T06:19:35.850Z,249.71
2023-03-29T06:20:35.640Z,249.21
2023-03-29T06:21:35.572Z,249.95
2023-03-29T06:22:35.841Z,249.92
2023-03-29T06:23:35.483Z,249.46
2023-03-29T06:24:35.882Z,250.00
2023-03-29T06:25:35.420Z,248.34
2023-03-29T06:26:35.490Z,249.57
2023-03-29T06:27:35.372Z,249.54
2023-03-29T06:28:35.279Z,250.00
2023-03-29T06:29:35.354Z,249.82
2023-03-29T06:30:35.301Z,249.30
2023-03-29T06:31:35.456Z,249.86
2023-03-29T06:32:35.391Z,250.00
2023-03-29T06:33:35.236Z,249.99
2023-03-29T06:34:37.250Z,249.26
2023-03-29T06:35:35.183Z,248.42
2023-03-29T06:36:35.090Z,248.64
2023-03-29T06:37:35.076Z,249.55
2023-03-29T06:38:34.986Z,250.00
2023-03-29T06:39:35.001Z,247.65
2023-03-29T06:40:34.958Z,244.92
2023-03-29T06:41:34.852Z,246.01
2023-03-29T06:42:34.784Z,244.00
2023-03-29T06:43:34.770Z,243.63
2023-03-29T06:44:34.782Z,242.95
2023-03-29T06:45:34.707Z,244.21
2023-03-29T06:46:34.714Z,244.60
2023-03-29T06:47:34.632Z,243.54
2023-03-29T06:48:34.507Z,245.89
2023-03-29T06:49:34.496Z,245.03
2023-03-29T06:50:34.468Z,245.48
2023-03-29T06:51:34.418Z,245.40
2023-03-29T06:52:34.342Z,246.21
2023-03-29T06:53:34.317Z,247.48
2023-03-29T06:54:34.269Z,247.41
2023-03-29T06:55:34.233Z,247.49
2023-03-29T06:56:34.190Z,248.39
2023-03-29T06:57:34.103Z,249.63
2023-03-29T06:58:34.381Z,249.39
2023-03-29T06:59:34.016Z,249.13
2023-03-29T07:00:34.003Z,248.99
2023-03-29T07:01:33.953Z,250.14
2023-03-29T07:02:34.097Z,247.45
2023-03-29T07:03:33.820Z,246.36
2023-03-29T07:04:33.800Z,246.22
2023-03-29T07:05:33.777Z,245.72
2023-03-29T07:06:33.735Z,245.10
2023-03-29T07:07:33.678Z,244.84
2023-03-29T07:08:33.625Z,246.52
2023-03-29T07:09:33.558Z,245.24
2023-03-29T07:10:33.577Z,245.47
2023-03-29T07:11:33.518Z,244.69
2023-03-29T07:12:33.472Z,244.66
2023-03-29T07:13:33.434Z,244.00
2023-03-29T07:14:33.868Z,243.43
2023-03-29T07:15:33.352Z,244.63
2023-03-29T07:16:33.435Z,243.83
2023-03-29T07:17:33.280Z,243.89
2023-03-29T07:18:33.274Z,241.82
2023-03-29T07:19:33.200Z,239.39
2023-03-29T07:20:33.167Z,236.37
2023-03-29T07:21:33.659Z,233.61
2023-03-29T07:22:33.077Z,232.29
2023-03-29T07:23:33.060Z,232.88
2023-03-29T07:24:32.992Z,235.79
2023-03-29T07:25:32.950Z,236.98
2023-03-29T07:26:32.902Z,234.76
2023-03-29T07:27:32.917Z,231.85
2023-03-29T07:28:32.852Z,231.91
2023-03-29T07:29:32.765Z,230.71
2023-03-29T07:30:32.843Z,229.39
2023-03-29T07:31:32.751Z,230.89
2023-03-29T07:32:32.845Z,227.84
2023-03-29T07:33:32.824Z,229.45
2023-03-29T07:34:32.639Z,227.76
2023-03-29T07:35:32.635Z,228.24
2023-03-29T07:36:32.527Z,229.15
2023-03-29T07:37:32.468Z,229.86
2023-03-29T07:38:32.420Z,230.38
2023-03-29T07:39:32.418Z,232.24
2023-03-29T07:40:32.374Z,231.06
2023-03-29T07:41:32.344Z,228.38
2023-03-29T07:42:32.326Z,227.36
2023-03-29T07:43:32.294Z,227.89
2023-03-29T07:44:32.284Z,227.34
2023-03-29T07:45:32.454Z,228.19
2023-03-29T07:46:32.248Z,228.77
2023-03-29T07:47:32.304Z,228.98
2023-03-29T07:48:32.227Z,229.27
2023-03-29T07:49:32.242Z,229.54
2023-03-29T07:50:32.220Z,229.14
2023-03-29T07:51:32.189Z,229.03
2023-03-29T07:52:32.194Z,228.06
2023-03-29T07:53:32.162Z,229.35
2023-03-29T07:54:32.172Z,230.53
2023-03-29T07:55:32.148Z,229.93
2023-03-29T07:56:32.109Z,229.95
2023-03-29T07:57:32.181Z,231.14
2023-03-29T07:58:32.103Z,230.39
2023-03-29T07:59:32.131Z,230.87
2023-03-29T08:00:32.127Z,229.52
2023-03-29T08:01:32.129Z,230.23
2023-03-29T08:02:32.048Z,231.12
2023-03-29T08:03:32.079Z,230.83
2023-03-29T08:04:32.185Z,230.39
2023-03-29T08:05:40.865Z,230.20
2023-03-29T08:06:32.996Z,230.24
2023-03-29T08:07:31.921Z,230.24
2023-03-29T08:08:31.953Z,228.64
2023-03-29T08:09:31.871Z,229.13
2023-03-29T08:10:31.880Z,227.82
2023-03-29T08:11:31.764Z,227.15
2023-03-29T08:12:31.724Z,227.42
2023-03-29T08:13:31.690Z,226.67
2023-03-29T08:14:31.644Z,226.62
2023-03-29T08:15:31.902Z,225.83
2023-03-29T08:16:31.682Z,225.43
2023-03-29T08:17:31.562Z,225.43
2023-03-29T08:18:33.494Z,224.99
2023-03-29T08:19:31.459Z,225.43
2023-03-29T08:20:31.518Z,224.68
2023-03-29T08:21:31.377Z,223.77
2023-03-29T08:22:31.353Z,223.30
2023-03-29T08:23:31.277Z,224.22
2023-03-29T08:24:31.224Z,223.19
2023-03-29T08:25:31.189Z,222.23
2023-03-29T08:26:31.115Z,221.87
2023-03-29T08:27:31.086Z,221.51
2023-03-29T08:28:31.094Z,221.24
2023-03-29T08:29:31.010Z,220.83
2023-03-29T08:30:30.995Z,220.64
2023-03-29T08:31:31.009Z,220.07
2023-03-29T08:32:30.920Z,219.76
2023-03-29T08:33:30.826Z,219.04
2023-03-29T08:34:30.805Z,219.31
2023-03-29T08:35:30.746Z,217.73
2023-03-29T08:36:30.718Z,217.16
2023-03-29T08:37:30.675Z,216.92
2023-03-29T08:38:30.645Z,210.93
2023-03-29T08:39:30.592Z,200.21
2023-03-29T08:40:30.559Z,187.83
2023-03-29T08:41:30.504Z,178.27
2023-03-29T08:42:30.482Z,170.11
2023-03-29T08:43:30.450Z,164.57
2023-03-29T08:44:30.408Z,164.23
2023-03-29T08:45:30.346Z,166.98
2023-03-29T08:46:35.095Z,164.33
2023-03-29T08:47:31.298Z,164.35
2023-03-29T08:48:30.264Z,161.70
2023-03-29T08:49:30.276Z,157.54
2023-03-29T08:50:30.399Z,154.05
2023-03-29T08:51:30.156Z,150.95
2023-03-29T08:52:30.100Z,148.72
2023-03-29T08:53:30.119Z,156.15
2023-03-29T08:54:30.060Z,160.71
2023-03-29T08:55:30.394Z,161.46
2023-03-29T08:56:32.758Z,165.47
2023-03-29T08:57:29.954Z,162.88
2023-03-29T08:58:29.914Z,162.19
2023-03-29T08:59:29.896Z,162.57
2023-03-29T09:00:29.855Z,162.94
2023-03-29T09:01:29.855Z,162.81
2023-03-29T09:02:29.884Z,161.01
2023-03-29T09:03:29.896Z,160.84
2023-03-29T09:04:29.720Z,158.61
2023-03-29T09:05:29.716Z,155.05
2023-03-29T09:06:29.694Z,153.04
2023-03-29T09:07:29.654Z,149.91
2023-03-29T09:08:29.628Z,147.95
2023-03-29T09:09:29.606Z,147.36
2023-03-29T09:10:29.918Z,147.74
2023-03-29T09:11:29.577Z,149.77
2023-03-29T09:12:29.537Z,150.53
2023-03-29T09:13:29.555Z,150.67
2023-03-29T09:14:29.444Z,151.71
2023-03-29T09:15:29.423Z,150.65
2023-03-29T09:16:29.407Z,148.34
2023-03-29T09:17:29.448Z,146.67
2023-03-29T09:18:29.370Z,145.56
2023-03-29T09:19:29.329Z,142.98
2023-03-29T09:20:29.319Z,139.66
2023-03-29T09:21:29.273Z,137.16
2023-03-29T09:22:29.259Z,135.95
2023-03-29T09:23:29.245Z,133.29
2023-03-29T09:24:29.261Z,130.57
2023-03-29T09:25:29.233Z,128.76
2023-03-29T09:26:29.226Z,127.74
2023-03-29T09:27:29.175Z,128.14
2023-03-29T09:28:29.170Z,127.44
2023-03-29T09:29:29.131Z,127.34
2023-03-29T09:30:29.459Z,125.33
2023-03-29T09:31:29.162Z,125.21
2023-03-29T09:32:29.118Z,124.47
2023-03-29T09:33:29.053Z,123.17
2023-03-29T09:34:29.030Z,122.45
2023-03-29T09:35:29.058Z,121.05
2023-03-29T09:36:29.001Z,121.84
2023-03-29T09:37:28.947Z,121.92
2023-03-29T09:38:28.950Z,122.61
2023-03-29T09:39:28.935Z,121.85
2023-03-29T09:40:28.971Z,120.64
2023-03-29T09:41:28.953Z,116.69
2023-03-29T09:42:29.008Z,104.11
2023-03-29T09:43:29.067Z,76.59
2023-03-29T09:44:31.366Z,60.96
2023-03-29T09:45:29.250Z,75.06
2023-03-29T09:46:29.272Z,89.91
2023-03-29T09:47:29.369Z,103.26
2023-03-29T09:48:29.362Z,115.59
2023-03-29T09:49:29.376Z,127.97
2023-03-29T09:50:31.859Z,138.80
2023-03-29T09:51:29.381Z,151.03
2023-03-29T09:52:29.360Z,161.03
2023-03-29T09:53:29.344Z,166.75
2023-03-29T09:54:29.327Z,169.23
2023-03-29T09:55:29.304Z,170.49
2023-03-29T09:56:29.285Z,173.45
2023-03-29T09:57:29.270Z,179.24
2023-03-29T09:58:29.249Z,181.22
2023-03-29T09:59:29.253Z,183.06
2023-03-29T10:00:29.186Z,187.94
2023-03-29T10:01:29.296Z,192.39
2023-03-29T10:02:29.188Z,192.59
2023-03-29T10:03:29.100Z,193.13
2023-03-29T10:04:29.122Z,194.42
2023-03-29T10:05:29.005Z,195.54
2023-03-29T10:06:28.990Z,202.32
2023-03-29T10:07:28.929Z,202.27
2023-03-29T10:08:28.908Z,205.52
2023-03-29T10:09:28.933Z,207.96
2023-03-29T10:10:28.910Z,210.95
2023-03-29T10:11:28.839Z,212.87
2023-03-29T10:12:28.721Z,214.56
2023-03-29T10:13:28.723Z,214.67
2023-03-29T10:14:28.650Z,214.40
2023-03-29T10:15:30.050Z,218.64
2023-03-29T10:16:28.673Z,217.86
2023-03-29T10:17:28.548Z,220.51
2023-03-29T10:18:28.627Z,220.19
2023-03-29T10:19:28.553Z,220.38
2023-03-29T10:20:28.511Z,224.06
2023-03-29T10:21:28.509Z,224.93
2023-03-29T10:22:28.470Z,227.75
2023-03-29T10:23:28.479Z,227.98
2023-03-29T10:24:28.458Z,228.25
2023-03-29T10:25:28.410Z,230.24
2023-03-29T10:26:28.451Z,229.25
2023-03-29T10:27:28.451Z,231.69
2023-03-29T10:28:28.403Z,233.49
2023-03-29T10:29:28.408Z,233.54
2023-03-29T10:30:28.385Z,233.31
2023-03-29T10:31:28.493Z,237.03
2023-03-29T10:32:28.436Z,237.67
2023-03-29T10:33:28.274Z,236.59
2023-03-29T10:34:28.303Z,242.36
2023-03-29T10:35:28.303Z,245.08
2023-03-29T10:36:28.470Z,247.41
2023-03-29T10:37:28.254Z,242.08
2023-03-29T10:38:28.309Z,238.23
2023-03-29T10:39:28.245Z,228.33
2023-03-29T10:40:28.232Z,222.39
2023-03-29T10:41:28.216Z,217.98
2023-03-29T10:42:28.234Z,220.96
2023-03-29T10:43:28.246Z,222.85
2023-03-29T10:44:29.361Z,223.67
2023-03-29T10:45:28.175Z,226.15
2023-03-29T10:46:28.200Z,226.17
2023-03-29T10:47:28.129Z,227.80
2023-03-29T10:48:28.108Z,228.33
2023-03-29T10:49:28.047Z,227.20
2023-03-29T10:50:28.047Z,228.21
2023-03-29T10:51:27.988Z,227.22
2023-03-29T10:52:27.954Z,227.81
2023-03-29T10:53:27.885Z,228.74
2023-03-29T10:54:27.858Z,231.71
2023-03-29T10:55:27.840Z,229.31
2023-03-29T10:56:27.838Z,230.34
2023-03-29T10:57:27.927Z,230.96
2023-03-29T10:58:27.735Z,231.18
2023-03-29T10:59:27.708Z,233.20
2023-03-29T11:00:27.667Z,232.59
2023-03-29T11:01:27.661Z,231.87
2023-03-29T11:02:27.723Z,231.89
2023-03-29T11:03:27.739Z,230.54
2023-03-29T11:04:27.527Z,229.59
2023-03-29T11:05:27.528Z,230.09
2023-03-29T11:06:27.461Z,231.08
2023-03-29T11:07:27.406Z,231.33
2023-03-29T11:08:28.477Z,229.87
2023-03-29T11:09:27.349Z,229.92
2023-03-29T11:10:27.320Z,229.89
2023-03-29T11:11:27.277Z,228.86
2023-03-29T11:12:27.230Z,230.10
2023-03-29T11:13:27.209Z,229.21
2023-03-29T11:14:27.179Z,226.34
2023-03-29T11:15:27.159Z,225.71
2023-03-29T11:16:27.162Z,224.36
2023-03-29T11:17:27.111Z,224.46
2023-03-29T11:18:27.047Z,226.05
2023-03-29T11:19:27.026Z,225.45
2023-03-29T11:20:27.024Z,225.56
2023-03-29T11:21:26.958Z,224.13
2023-03-29T11:22:26.898Z,222.79
2023-03-29T11:23:26.863Z,221.94
2023-03-29T11:24:26.841Z,223.13
2023-03-29T11:25:29.529Z,223.20
2023-03-29T11:26:26.961Z,223.25
2023-03-29T11:27:26.754Z,221.55
2023-03-29T11:28:26.702Z,211.11
2023-03-29T11:29:26.672Z,199.53
2023-03-29T11:30:26.620Z,194.89
2023-03-29T11:31:27.074Z,182.95
2023-03-29T11:32:26.612Z,186.66
2023-03-29T11:33:26.565Z,188.67
2023-03-29T11:34:26.509Z,192.16
2023-03-29T11:35:26.500Z,195.37
2023-03-29T11:36:26.512Z,197.15
2023-03-29T11:37:26.431Z,196.45
2023-03-29T11:38:26.374Z,196.79
2023-03-29T11:39:26.367Z,198.19
2023-03-29T11:40:26.399Z,197.44
2023-03-29T11:41:26.323Z,197.41
2023-03-29T11:42:26.253Z,196.07
2023-03-29T11:43:26.226Z,195.52
2023-03-29T11:44:26.216Z,196.78
2023-03-29T11:45:26.158Z,198.00
2023-03-29T11:46:26.160Z,198.47
2023-03-29T11:47:26.142Z,199.16
2023-03-29T11:48:26.054Z,197.71
2023-03-29T11:49:26.054Z,198.12
2023-03-29T11:50:25.993Z,197.94
2023-03-29T11:51:25.952Z,198.65
2023-03-29T11:52:25.934Z,199.29
2023-03-29T11:53:26.291Z,197.38
2023-03-29T11:54:25.879Z,198.03
2023-03-29T11:55:25.814Z,197.51
2023-03-29T11:56:25.814Z,197.98
2023-03-29T11:57:25.819Z,197.98
2023-03-29T11:58:25.704Z,197.43
2023-03-29T11:59:25.703Z,199.13
2023-03-29T12:00:25.703Z,197.05
2023-03-29T12:01:25.657Z,195.45
2023-03-29T12:02:25.698Z,196.54
2023-03-29T12:03:25.693Z,196.36
2023-03-29T12:04:25.576Z,195.74
2023-03-29T12:05:25.531Z,195.32
2023-03-29T12:06:25.479Z,195.65
2023-03-29T12:07:25.441Z,193.41
2023-03-29T12:08:25.400Z,194.16
2023-03-29T12:09:25.401Z,188.30
2023-03-29T12:10:25.357Z,179.44
2023-03-29T12:11:25.330Z,170.49
2023-03-29T12:12:25.287Z,170.52
2023-03-29T12:13:25.259Z,170.08
2023-03-29T12:14:27.814Z,162.78
2023-03-29T12:15:25.253Z,152.76
2023-03-29T12:16:25.235Z,154.95
2023-03-29T12:17:25.216Z,161.87
2023-03-29T12:18:25.152Z,171.87
2023-03-29T12:19:25.118Z,210.06
2023-03-29T12:20:25.094Z,246.95
2023-03-29T12:21:25.100Z,247.57
2023-03-29T12:22:25.062Z,253.88
2023-03-29T12:23:25.015Z,251.48
2023-03-29T12:24:24.986Z,247.07
2023-03-29T12:25:24.997Z,278.76
2023-03-29T12:26:24.939Z,285.33
2023-03-29T12:27:24.924Z,273.80
2023-03-29T12:28:24.870Z,252.25